sensor_id;sensor_type;location;lat;lon;timestamp;P1;durP1;ratioP1;P2;durP2;ratioP2
76863;SDS011;65834;52.364;9.754;2023-07-13T00:00:48;7.00;;;2.70;;
76863;SDS011;65834;52.364;9.754;2023-07-13T00:03:18;7.78;;;2.92;;
76863;SDS011;65834;52.364;9.754;2023-07-13T00:05:56;6.65;;;3.35;;
76863;SDS011;65834;52.364;9.754;2023-07-13T00:08:29;8.13;;;3.38;;
76863;SDS011;65834;52.364;9.754;2023-07-13T00:11:01;9.73;;;3.78;;
76863;SDS011;65834;52.364;9.754;2023-07-13T00:13:35;8.57;;;3.40;;
76863;SDS011;65834;52.364;9.754;2023-07-13T00:18:35;10.68;;;3.15;;
76863;SDS011;65834;52.364;9.754;2023-07-13T00:21:05;9.00;;;2.80;;
76863;SDS011;65834;52.364;9.754;2023-07-13T00:23:36;8.32;;;3.13;;
76863;SDS011;65834;52.364;9.754;2023-07-13T00:26:08;7.57;;;2.57;;
76863;SDS011;65834;52.364;9.754;2023-07-13T00:28:42;9.82;;;3.50;;
76863;SDS011;65834;52.364;9.754;2023-07-13T00:31:12;9.32;;;3.00;;
76863;SDS011;65834;52.364;9.754;2023-07-13T00:33:43;8.15;;;3.10;;
76863;SDS011;65834;52.364;9.754;2023-07-13T00:36:13;7.53;;;2.95;;
76863;SDS011;65834;52.364;9.754;2023-07-13T00:38:43;10.57;;;3.20;;
76863;SDS011;65834;52.364;9.754;2023-07-13T00:41:12;8.68;;;2.70;;
76863;SDS011;65834;52.364;9.754;2023-07-13T00:43:45;9.27;;;2.85;;
76863;SDS011;65834;52.364;9.754;2023-07-13T00:46:16;10.55;;;3.70;;
76863;SDS011;65834;52.364;9.754;2023-07-13T00:48:51;8.27;;;3.63;;
76863;SDS011;65834;52.364;9.754;2023-07-13T00:51:25;7.63;;;2.70;;
76863;SDS011;65834;52.364;9.754;2023-07-13T00:54:00;7.53;;;3.15;;
76863;SDS011;65834;52.364;9.754;2023-07-13T00:56:34;8.45;;;2.88;;
76863;SDS011;65834;52.364;9.754;2023-07-13T00:59:07;7.65;;;3.10;;
76863;SDS011;65834;52.364;9.754;2023-07-13T01:01:39;8.45;;;3.38;;
76863;SDS011;65834;52.364;9.754;2023-07-13T01:04:09;7.88;;;3.28;;
76863;SDS011;65834;52.364;9.754;2023-07-13T01:06:40;9.73;;;3.45;;
76863;SDS011;65834;52.364;9.754;2023-07-13T01:09:14;11.27;;;3.45;;
76863;SDS011;65834;52.364;9.754;2023-07-13T01:11:44;8.18;;;2.97;;
76863;SDS011;65834;52.364;9.754;2023-07-13T01:14:16;8.88;;;3.38;;
76863;SDS011;65834;52.364;9.754;2023-07-13T01:16:46;9.68;;;4.07;;
76863;SDS011;65834;52.364;9.754;2023-07-13T01:19:20;9.73;;;3.20;;
76863;SDS011;65834;52.364;9.754;2023-07-13T01:22:06;8.20;;;2.92;;
76863;SDS011;65834;52.364;9.754;2023-07-13T01:24:39;9.77;;;3.47;;
76863;SDS011;65834;52.364;9.754;2023-07-13T01:27:10;8.10;;;3.28;;
76863;SDS011;65834;52.364;9.754;2023-07-13T01:29:42;11.10;;;3.35;;
76863;SDS011;65834;52.364;9.754;2023-07-13T01:32:15;11.35;;;3.60;;
76863;SDS011;65834;52.364;9.754;2023-07-13T01:34:49;9.98;;;3.38;;
76863;SDS011;65834;52.364;9.754;2023-07-13T01:37:24;6.85;;;2.80;;
76863;SDS011;65834;52.364;9.754;2023-07-13T01:39:59;6.97;;;2.92;;
76863;SDS011;65834;52.364;9.754;2023-07-13T01:42:29;7.28;;;3.13;;
76863;SDS011;65834;52.364;9.754;2023-07-13T01:44:59;8.05;;;3.28;;
76863;SDS011;65834;52.364;9.754;2023-07-13T01:47:29;10.23;;;4.32;;
76863;SDS011;65834;52.364;9.754;2023-07-13T01:49:59;8.65;;;3.53;;
76863;SDS011;65834;52.364;9.754;2023-07-13T01:52:32;9.50;;;3.78;;
76863;SDS011;65834;52.364;9.754;2023-07-13T01:55:01;10.60;;;3.53;;
76863;SDS011;65834;52.364;9.754;2023-07-13T01:57:32;10.15;;;3.05;;
76863;SDS011;65834;52.364;9.754;2023-07-13T02:00:03;8.68;;;3.60;;
76863;SDS011;65834;52.364;9.754;2023-07-13T02:02:40;5.82;;;2.90;;
76863;SDS011;65834;52.364;9.754;2023-07-13T02:05:12;6.15;;;2.47;;
76863;SDS011;65834;52.364;9.754;2023-07-13T02:07:45;10.00;;;3.70;;
76863;SDS011;65834;52.364;9.754;2023-07-13T02:10:15;8.93;;;3.13;;
76863;SDS011;65834;52.364;9.754;2023-07-13T02:12:45;10.25;;;3.17;;
76863;SDS011;65834;52.364;9.754;2023-07-13T02:15:17;8.48;;;3.20;;
76863;SDS011;65834;52.364;9.754;2023-07-13T02:17:47;6.30;;;2.97;;
76863;SDS011;65834;52.364;9.754;2023-07-13T02:20:16;7.85;;;3.13;;
76863;SDS011;65834;52.364;9.754;2023-07-13T02:22:48;5.97;;;2.90;;
76863;SDS011;65834;52.364;9.754;2023-07-13T02:25:20;9.68;;;3.22;;
76863;SDS011;65834;52.364;9.754;2023-07-13T02:27:51;9.57;;;3.30;;
76863;SDS011;65834;52.364;9.754;2023-07-13T02:30:21;9.00;;;3.25;;
76863;SDS011;65834;52.364;9.754;2023-07-13T02:32:53;10.80;;;3.42;;
76863;SDS011;65834;52.364;9.754;2023-07-13T02:35:23;10.70;;;3.90;;
76863;SDS011;65834;52.364;9.754;2023-07-13T02:37:55;9.57;;;3.00;;
76863;SDS011;65834;52.364;9.754;2023-07-13T02:40:25;7.28;;;3.05;;
76863;SDS011;65834;52.364;9.754;2023-07-13T02:42:54;9.88;;;3.20;;
76863;SDS011;65834;52.364;9.754;2023-07-13T02:45:24;7.57;;;2.97;;
76863;SDS011;65834;52.364;9.754;2023-07-13T02:47:53;9.35;;;3.05;;
76863;SDS011;65834;52.364;9.754;2023-07-13T02:50:23;7.38;;;2.92;;
76863;SDS011;65834;52.364;9.754;2023-07-13T02:52:55;9.68;;;3.45;;
76863;SDS011;65834;52.364;9.754;2023-07-13T02:55:25;10.50;;;3.05;;
76863;SDS011;65834;52.364;9.754;2023-07-13T02:57:55;8.30;;;3.25;;
76863;SDS011;65834;52.364;9.754;2023-07-13T03:00:24;7.70;;;3.20;;
76863;SDS011;65834;52.364;9.754;2023-07-13T03:02:54;6.38;;;2.60;;
76863;SDS011;65834;52.364;9.754;2023-07-13T03:05:25;7.47;;;2.90;;
76863;SDS011;65834;52.364;9.754;2023-07-13T03:07:59;6.57;;;2.70;;
76863;SDS011;65834;52.364;9.754;2023-07-13T03:10:31;7.25;;;3.28;;
76863;SDS011;65834;52.364;9.754;2023-07-13T03:13:01;7.50;;;2.80;;
76863;SDS011;65834;52.364;9.754;2023-07-13T03:15:31;7.30;;;3.10;;
76863;SDS011;65834;52.364;9.754;2023-07-13T03:18:02;9.20;;;2.85;;
76863;SDS011;65834;52.364;9.754;2023-07-13T03:20:32;7.72;;;2.70;;
76863;SDS011;65834;52.364;9.754;2023-07-13T03:23:05;6.80;;;2.75;;
76863;SDS011;65834;52.364;9.754;2023-07-13T03:25:34;4.90;;;2.70;;
76863;SDS011;65834;52.364;9.754;2023-07-13T03:28:04;6.22;;;2.97;;
76863;SDS011;65834;52.364;9.754;2023-07-13T03:30:33;10.10;;;2.88;;
76863;SDS011;65834;52.364;9.754;2023-07-13T03:33:03;9.85;;;2.90;;
76863;SDS011;65834;52.364;9.754;2023-07-13T03:35:34;7.25;;;2.35;;
76863;SDS011;65834;52.364;9.754;2023-07-13T03:38:06;10.60;;;2.78;;
76863;SDS011;65834;52.364;9.754;2023-07-13T03:40:38;8.07;;;3.20;;
76863;SDS011;65834;52.364;9.754;2023-07-13T03:43:08;9.02;;;3.00;;
76863;SDS011;65834;52.364;9.754;2023-07-13T03:45:37;7.47;;;3.05;;
76863;SDS011;65834;52.364;9.754;2023-07-13T03:48:07;8.15;;;2.83;;
76863;SDS011;65834;52.364;9.754;2023-07-13T03:50:37;7.43;;;2.85;;
76863;SDS011;65834;52.364;9.754;2023-07-13T03:53:09;9.45;;;3.45;;
76863;SDS011;65834;52.364;9.754;2023-07-13T03:55:39;7.63;;;3.20;;
76863;SDS011;65834;52.364;9.754;2023-07-13T03:58:29;10.30;;;3.30;;
76863;SDS011;65834;52.364;9.754;2023-07-13T04:01:10;6.78;;;2.40;;
76863;SDS011;65834;52.364;9.754;2023-07-13T04:03:40;8.98;;;3.00;;
76863;SDS011;65834;52.364;9.754;2023-07-13T04:06:13;9.93;;;2.90;;
76863;SDS011;65834;52.364;9.754;2023-07-13T04:08:52;9.27;;;2.95;;
76863;SDS011;65834;52.364;9.754;2023-07-13T04:11:24;12.13;;;2.90;;
76863;SDS011;65834;52.364;9.754;2023-07-13T04:13:55;7.23;;;2.53;;
76863;SDS011;65834;52.364;9.754;2023-07-13T04:16:25;9.77;;;2.97;;
76863;SDS011;65834;52.364;9.754;2023-07-13T04:18:55;9.10;;;2.90;;
76863;SDS011;65834;52.364;9.754;2023-07-13T04:21:27;7.88;;;2.50;;
76863;SDS011;65834;52.364;9.754;2023-07-13T04:24:01;6.47;;;2.50;;
76863;SDS011;65834;52.364;9.754;2023-07-13T04:26:30;8.32;;;2.67;;
76863;SDS011;65834;52.364;9.754;2023-07-13T04:29:02;8.77;;;2.88;;
76863;SDS011;65834;52.364;9.754;2023-07-13T04:31:32;8.27;;;2.67;;
76863;SDS011;65834;52.364;9.754;2023-07-13T04:34:02;9.13;;;2.55;;
76863;SDS011;65834;52.364;9.754;2023-07-13T04:36:32;6.35;;;2.53;;
76863;SDS011;65834;52.364;9.754;2023-07-13T04:39:06;10.20;;;3.10;;
76863;SDS011;65834;52.364;9.754;2023-07-13T04:41:36;7.47;;;2.45;;
76863;SDS011;65834;52.364;9.754;2023-07-13T04:44:06;8.15;;;2.28;;
76863;SDS011;65834;52.364;9.754;2023-07-13T04:46:35;7.68;;;2.50;;
76863;SDS011;65834;52.364;9.754;2023-07-13T04:49:05;5.68;;;2.00;;
76863;SDS011;65834;52.364;9.754;2023-07-13T04:51:37;11.63;;;2.85;;
76863;SDS011;65834;52.364;9.754;2023-07-13T04:54:09;8.38;;;2.30;;
76863;SDS011;65834;52.364;9.754;2023-07-13T04:56:39;8.90;;;2.50;;
76863;SDS011;65834;52.364;9.754;2023-07-13T04:59:08;13.07;;;2.60;;
76863;SDS011;65834;52.364;9.754;2023-07-13T05:01:38;10.07;;;2.58;;
76863;SDS011;65834;52.364;9.754;2023-07-13T05:04:07;7.97;;;2.40;;
76863;SDS011;65834;52.364;9.754;2023-07-13T05:06:37;9.68;;;3.35;;
76863;SDS011;65834;52.364;9.754;2023-07-13T05:09:07;12.10;;;2.65;;
76863;SDS011;65834;52.364;9.754;2023-07-13T05:11:39;11.63;;;2.92;;
76863;SDS011;65834;52.364;9.754;2023-07-13T05:14:08;6.80;;;2.45;;
76863;SDS011;65834;52.364;9.754;2023-07-13T05:16:38;8.60;;;2.58;;
76863;SDS011;65834;52.364;9.754;2023-07-13T05:19:08;12.18;;;2.85;;
76863;SDS011;65834;52.364;9.754;2023-07-13T05:21:38;11.43;;;2.70;;
76863;SDS011;65834;52.364;9.754;2023-07-13T05:24:10;8.90;;;2.67;;
76863;SDS011;65834;52.364;9.754;2023-07-13T05:26:51;11.20;;;2.35;;
76863;SDS011;65834;52.364;9.754;2023-07-13T05:29:21;8.27;;;2.85;;
76863;SDS011;65834;52.364;9.754;2023-07-13T05:31:51;14.32;;;2.90;;
76863;SDS011;65834;52.364;9.754;2023-07-13T05:34:20;10.60;;;3.03;;
76863;SDS011;65834;52.364;9.754;2023-07-13T05:36:50;12.25;;;2.50;;
76863;SDS011;65834;52.364;9.754;2023-07-13T05:39:22;8.30;;;2.40;;
76863;SDS011;65834;52.364;9.754;2023-07-13T05:41:52;13.35;;;2.67;;
76863;SDS011;65834;52.364;9.754;2023-07-13T05:44:22;10.13;;;2.38;;
76863;SDS011;65834;52.364;9.754;2023-07-13T05:46:51;8.18;;;2.33;;
76863;SDS011;65834;52.364;9.754;2023-07-13T05:49:21;12.57;;;2.90;;
76863;SDS011;65834;52.364;9.754;2023-07-13T05:51:51;11.80;;;2.50;;
76863;SDS011;65834;52.364;9.754;2023-07-13T05:54:23;9.95;;;2.42;;
76863;SDS011;65834;52.364;9.754;2023-07-13T05:56:53;7.75;;;2.60;;
76863;SDS011;65834;52.364;9.754;2023-07-13T05:59:22;10.95;;;2.30;;
76863;SDS011;65834;52.364;9.754;2023-07-13T06:01:52;9.68;;;2.75;;
76863;SDS011;65834;52.364;9.754;2023-07-13T06:04:21;8.05;;;2.35;;
76863;SDS011;65834;52.364;9.754;2023-07-13T06:06:51;13.20;;;3.63;;
76863;SDS011;65834;52.364;9.754;2023-07-13T06:09:24;13.85;;;3.15;;
76863;SDS011;65834;52.364;9.754;2023-07-13T06:11:54;11.90;;;2.45;;
76863;SDS011;65834;52.364;9.754;2023-07-13T06:14:23;11.23;;;2.67;;
76863;SDS011;65834;52.364;9.754;2023-07-13T06:16:53;10.27;;;2.90;;
76863;SDS011;65834;52.364;9.754;2023-07-13T06:19:22;9.27;;;2.45;;
76863;SDS011;65834;52.364;9.754;2023-07-13T06:21:52;11.10;;;2.75;;
76863;SDS011;65834;52.364;9.754;2023-07-13T06:24:25;9.27;;;2.50;;
76863;SDS011;65834;52.364;9.754;2023-07-13T06:26:55;12.43;;;2.90;;
76863;SDS011;65834;52.364;9.754;2023-07-13T06:29:25;9.65;;;2.50;;
76863;SDS011;65834;52.364;9.754;2023-07-13T06:31:54;9.23;;;2.33;;
76863;SDS011;65834;52.364;9.754;2023-07-13T06:34:24;9.98;;;2.58;;
76863;SDS011;65834;52.364;9.754;2023-07-13T06:36:53;10.50;;;3.10;;
76863;SDS011;65834;52.364;9.754;2023-07-13T06:39:25;10.20;;;3.05;;
76863;SDS011;65834;52.364;9.754;2023-07-13T06:41:55;9.45;;;2.72;;
76863;SDS011;65834;52.364;9.754;2023-07-13T06:44:25;8.52;;;2.92;;
76863;SDS011;65834;52.364;9.754;2023-07-13T06:46:54;12.15;;;2.80;;
76863;SDS011;65834;52.364;9.754;2023-07-13T06:49:24;10.60;;;2.83;;
76863;SDS011;65834;52.364;9.754;2023-07-13T06:51:53;8.25;;;2.70;;
76863;SDS011;65834;52.364;9.754;2023-07-13T06:54:25;11.35;;;2.97;;
76863;SDS011;65834;52.364;9.754;2023-07-13T06:56:55;10.20;;;3.13;;
76863;SDS011;65834;52.364;9.754;2023-07-13T06:59:24;7.30;;;2.72;;
76863;SDS011;65834;52.364;9.754;2023-07-13T07:01:54;9.05;;;2.60;;
76863;SDS011;65834;52.364;9.754;2023-07-13T07:04:23;10.20;;;2.58;;
76863;SDS011;65834;52.364;9.754;2023-07-13T07:06:53;10.70;;;2.40;;
76863;SDS011;65834;52.364;9.754;2023-07-13T07:09:27;6.90;;;2.50;;
76863;SDS011;65834;52.364;9.754;2023-07-13T07:11:57;12.13;;;2.83;;
76863;SDS011;65834;52.364;9.754;2023-07-13T07:14:29;7.68;;;2.30;;
76863;SDS011;65834;52.364;9.754;2023-07-13T07:17:00;6.68;;;1.92;;
76863;SDS011;65834;52.364;9.754;2023-07-13T07:19:30;9.50;;;1.90;;
76863;SDS011;65834;52.364;9.754;2023-07-13T07:22:01;11.70;;;2.70;;
76863;SDS011;65834;52.364;9.754;2023-07-13T07:24:33;8.98;;;2.28;;
76863;SDS011;65834;52.364;9.754;2023-07-13T07:27:03;8.38;;;2.08;;
76863;SDS011;65834;52.364;9.754;2023-07-13T07:29:36;6.47;;;2.17;;
76863;SDS011;65834;52.364;9.754;2023-07-13T07:32:12;9.73;;;2.13;;
76863;SDS011;65834;52.364;9.754;2023-07-13T07:35:02;8.02;;;2.20;;
76863;SDS011;65834;52.364;9.754;2023-07-13T07:37:32;10.25;;;2.10;;
76863;SDS011;65834;52.364;9.754;2023-07-13T07:40:08;6.45;;;1.95;;
76863;SDS011;65834;52.364;9.754;2023-07-13T07:42:40;8.77;;;2.20;;
76863;SDS011;65834;52.364;9.754;2023-07-13T07:45:10;10.50;;;2.30;;
76863;SDS011;65834;52.364;9.754;2023-07-13T07:47:40;9.07;;;2.30;;
76863;SDS011;65834;52.364;9.754;2023-07-13T07:50:09;9.30;;;2.30;;
76863;SDS011;65834;52.364;9.754;2023-07-13T07:52:39;8.25;;;2.15;;
76863;SDS011;65834;52.364;9.754;2023-07-13T07:55:13;10.50;;;2.47;;
76863;SDS011;65834;52.364;9.754;2023-07-13T07:57:45;7.30;;;1.85;;
76863;SDS011;65834;52.364;9.754;2023-07-13T08:00:18;9.45;;;2.75;;
76863;SDS011;65834;52.364;9.754;2023-07-13T08:02:51;8.85;;;2.63;;
76863;SDS011;65834;52.364;9.754;2023-07-13T08:05:24;9.18;;;2.25;;
76863;SDS011;65834;52.364;9.754;2023-07-13T08:07:57;8.82;;;1.88;;
76863;SDS011;65834;52.364;9.754;2023-07-13T08:10:29;8.07;;;2.55;;
76863;SDS011;65834;52.364;9.754;2023-07-13T08:12:58;10.32;;;2.05;;
76863;SDS011;65834;52.364;9.754;2023-07-13T08:15:31;13.15;;;2.63;;
76863;SDS011;65834;52.364;9.754;2023-07-13T08:18:01;7.78;;;2.17;;
76863;SDS011;65834;52.364;9.754;2023-07-13T08:20:31;10.27;;;2.28;;
76863;SDS011;65834;52.364;9.754;2023-07-13T08:23:00;8.45;;;2.10;;
76863;SDS011;65834;52.364;9.754;2023-07-13T08:25:33;9.90;;;3.03;;
76863;SDS011;65834;52.364;9.754;2023-07-13T08:28:03;8.07;;;2.28;;
76863;SDS011;65834;52.364;9.754;2023-07-13T08:30:33;8.15;;;2.30;;
76863;SDS011;65834;52.364;9.754;2023-07-13T08:33:02;10.65;;;2.13;;
76863;SDS011;65834;52.364;9.754;2023-07-13T08:35:32;9.75;;;2.60;;
76863;SDS011;65834;52.364;9.754;2023-07-13T08:38:02;12.05;;;2.65;;
76863;SDS011;65834;52.364;9.754;2023-07-13T08:40:34;11.68;;;2.63;;
76863;SDS011;65834;52.364;9.754;2023-07-13T08:43:03;6.18;;;1.90;;
76863;SDS011;65834;52.364;9.754;2023-07-13T08:45:34;10.13;;;2.55;;
76863;SDS011;65834;52.364;9.754;2023-07-13T08:48:13;8.07;;;2.30;;
76863;SDS011;65834;52.364;9.754;2023-07-13T08:50:52;9.55;;;2.30;;
76863;SDS011;65834;52.364;9.754;2023-07-13T08:56:02;9.25;;;2.55;;
76863;SDS011;65834;52.364;9.754;2023-07-13T08:58:36;8.60;;;2.70;;
76863;SDS011;65834;52.364;9.754;2023-07-13T09:01:10;11.52;;;2.70;;
76863;SDS011;65834;52.364;9.754;2023-07-13T09:03:50;9.02;;;2.40;;
76863;SDS011;65834;52.364;9.754;2023-07-13T09:06:28;12.05;;;2.22;;
76863;SDS011;65834;52.364;9.754;2023-07-13T09:09:06;12.10;;;2.47;;
76863;SDS011;65834;52.364;9.754;2023-07-13T09:11:49;8.52;;;2.25;;
76863;SDS011;65834;52.364;9.754;2023-07-13T09:14:33;8.38;;;2.20;;
76863;SDS011;65834;52.364;9.754;2023-07-13T09:17:10;8.23;;;2.40;;
76863;SDS011;65834;52.364;9.754;2023-07-13T09:19:43;8.93;;;2.83;;
76863;SDS011;65834;52.364;9.754;2023-07-13T09:22:18;7.15;;;2.10;;
76863;SDS011;65834;52.364;9.754;2023-07-13T09:24:52;7.72;;;1.83;;
76863;SDS011;65834;52.364;9.754;2023-07-13T09:27:30;9.27;;;2.70;;
76863;SDS011;65834;52.364;9.754;2023-07-13T09:30:11;5.13;;;1.83;;
76863;SDS011;65834;52.364;9.754;2023-07-13T09:32:52;6.32;;;1.95;;
76863;SDS011;65834;52.364;9.754;2023-07-13T09:35:25;8.60;;;2.83;;
76863;SDS011;65834;52.364;9.754;2023-07-13T09:37:58;9.50;;;2.60;;
76863;SDS011;65834;52.364;9.754;2023-07-13T09:40:32;9.18;;;2.17;;
76863;SDS011;65834;52.364;9.754;2023-07-13T09:43:13;8.25;;;2.25;;
76863;SDS011;65834;52.364;9.754;2023-07-13T09:45:45;9.48;;;2.30;;
76863;SDS011;65834;52.364;9.754;2023-07-13T09:48:16;6.07;;;2.10;;
76863;SDS011;65834;52.364;9.754;2023-07-13T09:50:47;7.05;;;2.20;;
76863;SDS011;65834;52.364;9.754;2023-07-13T09:53:17;7.70;;;1.75;;
76863;SDS011;65834;52.364;9.754;2023-07-13T09:55:50;6.40;;;1.90;;
76863;SDS011;65834;52.364;9.754;2023-07-13T09:58:24;8.90;;;2.22;;
76863;SDS011;65834;52.364;9.754;2023-07-13T10:00:55;8.40;;;1.90;;
76863;SDS011;65834;52.364;9.754;2023-07-13T10:03:27;8.32;;;2.25;;
76863;SDS011;65834;52.364;9.754;2023-07-13T10:06:09;6.22;;;2.42;;
76863;SDS011;65834;52.364;9.754;2023-07-13T10:08:41;9.98;;;2.47;;
76863;SDS011;65834;52.364;9.754;2023-07-13T10:11:16;7.78;;;2.90;;
76863;SDS011;65834;52.364;9.754;2023-07-13T10:13:53;7.38;;;2.17;;
76863;SDS011;65834;52.364;9.754;2023-07-13T10:16:27;6.43;;;1.83;;
76863;SDS011;65834;52.364;9.754;2023-07-13T10:19:02;9.20;;;2.10;;
76863;SDS011;65834;52.364;9.754;2023-07-13T10:21:35;7.40;;;2.15;;
76863;SDS011;65834;52.364;9.754;2023-07-13T10:24:10;5.90;;;2.13;;
76863;SDS011;65834;52.364;9.754;2023-07-13T10:26:46;7.97;;;2.10;;
76863;SDS011;65834;52.364;9.754;2023-07-13T10:29:25;8.95;;;2.45;;
76863;SDS011;65834;52.364;9.754;2023-07-13T10:31:56;7.88;;;1.95;;
76863;SDS011;65834;52.364;9.754;2023-07-13T10:34:26;8.30;;;2.10;;
76863;SDS011;65834;52.364;9.754;2023-07-13T10:36:57;6.35;;;2.08;;
76863;SDS011;65834;52.364;9.754;2023-07-13T10:39:28;5.82;;;2.10;;
76863;SDS011;65834;52.364;9.754;2023-07-13T10:41:59;7.20;;;1.90;;
76863;SDS011;65834;52.364;9.754;2023-07-13T10:44:35;6.75;;;2.03;;
76863;SDS011;65834;52.364;9.754;2023-07-13T10:47:06;6.53;;;2.30;;
76863;SDS011;65834;52.364;9.754;2023-07-13T10:49:37;8.65;;;2.40;;
76863;SDS011;65834;52.364;9.754;2023-07-13T10:58:12;8.88;;;2.50;;
76863;SDS011;65834;52.364;9.754;2023-07-13T11:00:49;10.68;;;2.83;;
76863;SDS011;65834;52.364;9.754;2023-07-13T11:03:22;7.72;;;3.20;;
76863;SDS011;65834;52.364;9.754;2023-07-13T11:06:05;10.25;;;3.78;;
76863;SDS011;65834;52.364;9.754;2023-07-13T11:08:38;7.20;;;2.67;;
76863;SDS011;65834;52.364;9.754;2023-07-13T11:11:35;8.63;;;2.40;;
76863;SDS011;65834;52.364;9.754;2023-07-13T11:17:02;8.60;;;2.40;;
76863;SDS011;65834;52.364;9.754;2023-07-13T11:23:17;5.28;;;2.00;;
76863;SDS011;65834;52.364;9.754;2023-07-13T11:25:49;6.57;;;2.00;;
76863;SDS011;65834;52.364;9.754;2023-07-13T11:28:21;6.53;;;1.73;;
76863;SDS011;65834;52.364;9.754;2023-07-13T11:31:02;8.05;;;1.92;;
76863;SDS011;65834;52.364;9.754;2023-07-13T11:33:50;9.98;;;2.45;;
76863;SDS011;65834;52.364;9.754;2023-07-13T11:36:23;6.57;;;2.40;;
76863;SDS011;65834;52.364;9.754;2023-07-13T11:38:56;6.43;;;1.73;;
76863;SDS011;65834;52.364;9.754;2023-07-13T11:41:30;4.05;;;1.50;;
76863;SDS011;65834;52.364;9.754;2023-07-13T11:44:10;8.30;;;2.40;;
76863;SDS011;65834;52.364;9.754;2023-07-13T11:46:45;5.32;;;1.65;;
76863;SDS011;65834;52.364;9.754;2023-07-13T11:49:23;4.95;;;1.85;;
76863;SDS011;65834;52.364;9.754;2023-07-13T11:51:55;8.88;;;2.28;;
76863;SDS011;65834;52.364;9.754;2023-07-13T11:54:27;6.20;;;1.88;;
76863;SDS011;65834;52.364;9.754;2023-07-13T11:59:32;5.72;;;1.80;;
76863;SDS011;65834;52.364;9.754;2023-07-13T12:02:12;6.63;;;1.90;;
76863;SDS011;65834;52.364;9.754;2023-07-13T12:04:51;7.20;;;2.00;;
76863;SDS011;65834;52.364;9.754;2023-07-13T12:07:22;7.38;;;1.92;;
76863;SDS011;65834;52.364;9.754;2023-07-13T12:09:52;6.55;;;1.98;;
76863;SDS011;65834;52.364;9.754;2023-07-13T12:12:22;3.20;;;1.60;;
76863;SDS011;65834;52.364;9.754;2023-07-13T12:14:51;7.60;;;1.90;;
76863;SDS011;65834;52.364;9.754;2023-07-13T12:17:22;4.95;;;1.65;;
76863;SDS011;65834;52.364;9.754;2023-07-13T12:19:56;4.65;;;1.50;;
76863;SDS011;65834;52.364;9.754;2023-07-13T12:22:26;5.18;;;1.90;;
76863;SDS011;65834;52.364;9.754;2023-07-13T12:24:56;4.35;;;2.00;;
76863;SDS011;65834;52.364;9.754;2023-07-13T12:27:29;7.65;;;1.95;;
76863;SDS011;65834;52.364;9.754;2023-07-13T12:30:00;7.88;;;2.53;;
76863;SDS011;65834;52.364;9.754;2023-07-13T12:32:32;5.65;;;1.90;;
76863;SDS011;65834;52.364;9.754;2023-07-13T12:35:13;5.95;;;1.63;;
76863;SDS011;65834;52.364;9.754;2023-07-13T12:37:48;6.88;;;1.90;;
76863;SDS011;65834;52.364;9.754;2023-07-13T12:40:20;6.63;;;2.10;;
76863;SDS011;65834;52.364;9.754;2023-07-13T12:42:55;6.00;;;2.03;;
76863;SDS011;65834;52.364;9.754;2023-07-13T12:45:25;6.07;;;1.80;;
76863;SDS011;65834;52.364;9.754;2023-07-13T12:47:57;5.97;;;2.10;;
76863;SDS011;65834;52.364;9.754;2023-07-13T12:50:36;6.40;;;2.13;;
76863;SDS011;65834;52.364;9.754;2023-07-13T12:53:10;5.43;;;2.10;;
76863;SDS011;65834;52.364;9.754;2023-07-13T12:55:46;7.65;;;2.15;;
76863;SDS011;65834;52.364;9.754;2023-07-13T12:58:25;6.20;;;2.03;;
76863;SDS011;65834;52.364;9.754;2023-07-13T13:00:56;7.07;;;2.15;;
76863;SDS011;65834;52.364;9.754;2023-07-13T13:03:29;6.07;;;2.10;;
76863;SDS011;65834;52.364;9.754;2023-07-13T13:06:05;8.00;;;2.10;;
76863;SDS011;65834;52.364;9.754;2023-07-13T13:08:50;8.25;;;2.30;;
76863;SDS011;65834;52.364;9.754;2023-07-13T13:11:21;8.80;;;2.72;;
76863;SDS011;65834;52.364;9.754;2023-07-13T13:13:52;9.63;;;2.60;;
76863;SDS011;65834;52.364;9.754;2023-07-13T13:16:23;7.20;;;2.42;;
76863;SDS011;65834;52.364;9.754;2023-07-13T13:18:59;9.77;;;2.88;;
76863;SDS011;65834;52.364;9.754;2023-07-13T13:21:35;8.95;;;2.95;;
76863;SDS011;65834;52.364;9.754;2023-07-13T13:24:08;8.25;;;2.83;;
76863;SDS011;65834;52.364;9.754;2023-07-13T13:26:40;7.38;;;2.42;;
76863;SDS011;65834;52.364;9.754;2023-07-13T13:29:14;8.68;;;3.20;;
76863;SDS011;65834;52.364;9.754;2023-07-13T13:31:45;9.77;;;3.60;;
76863;SDS011;65834;52.364;9.754;2023-07-13T13:34:16;10.15;;;3.15;;
76863;SDS011;65834;52.364;9.754;2023-07-13T13:36:51;10.38;;;3.00;;
76863;SDS011;65834;52.364;9.754;2023-07-13T13:39:28;9.75;;;2.85;;
76863;SDS011;65834;52.364;9.754;2023-07-13T13:42:02;7.57;;;2.63;;
76863;SDS011;65834;52.364;9.754;2023-07-13T13:44:32;9.15;;;3.17;;
76863;SDS011;65834;52.364;9.754;2023-07-13T13:47:02;6.95;;;2.45;;
76863;SDS011;65834;52.364;9.754;2023-07-13T13:49:32;6.47;;;2.22;;
76863;SDS011;65834;52.364;9.754;2023-07-13T13:52:08;6.63;;;2.60;;
76863;SDS011;65834;52.364;9.754;2023-07-13T13:54:39;5.43;;;1.90;;
76863;SDS011;65834;52.364;9.754;2023-07-13T13:57:09;11.07;;;2.90;;
76863;SDS011;65834;52.364;9.754;2023-07-13T13:59:39;6.40;;;2.25;;
76863;SDS011;65834;52.364;9.754;2023-07-13T14:02:14;7.32;;;2.40;;
76863;SDS011;65834;52.364;9.754;2023-07-13T14:04:53;8.43;;;2.63;;
76863;SDS011;65834;52.364;9.754;2023-07-13T14:07:29;8.30;;;2.47;;
76863;SDS011;65834;52.364;9.754;2023-07-13T14:09:58;8.45;;;2.65;;
76863;SDS011;65834;52.364;9.754;2023-07-13T14:12:29;7.78;;;2.80;;
76863;SDS011;65834;52.364;9.754;2023-07-13T14:14:59;7.95;;;2.90;;
76863;SDS011;65834;52.364;9.754;2023-07-13T14:17:29;6.57;;;2.55;;
76863;SDS011;65834;52.364;9.754;2023-07-13T14:20:09;8.23;;;2.60;;
76863;SDS011;65834;52.364;9.754;2023-07-13T14:22:44;8.93;;;2.63;;
76863;SDS011;65834;52.364;9.754;2023-07-13T14:25:15;7.35;;;2.80;;
76863;SDS011;65834;52.364;9.754;2023-07-13T14:27:48;10.05;;;2.28;;
76863;SDS011;65834;52.364;9.754;2023-07-13T14:30:22;8.23;;;2.83;;
76863;SDS011;65834;52.364;9.754;2023-07-13T14:32:52;7.45;;;2.85;;
76863;SDS011;65834;52.364;9.754;2023-07-13T14:35:21;9.32;;;3.13;;
76863;SDS011;65834;52.364;9.754;2023-07-13T14:37:55;6.80;;;2.78;;
76863;SDS011;65834;52.364;9.754;2023-07-13T14:40:25;5.70;;;2.38;;
76863;SDS011;65834;52.364;9.754;2023-07-13T14:42:58;4.32;;;1.85;;
76863;SDS011;65834;52.364;9.754;2023-07-13T14:45:27;6.07;;;1.95;;
76863;SDS011;65834;52.364;9.754;2023-07-13T14:50:31;3.97;;;1.83;;
76863;SDS011;65834;52.364;9.754;2023-07-13T14:53:07;5.35;;;1.90;;
76863;SDS011;65834;52.364;9.754;2023-07-13T14:55:39;4.80;;;1.98;;
76863;SDS011;65834;52.364;9.754;2023-07-13T14:58:09;3.67;;;1.90;;
76863;SDS011;65834;52.364;9.754;2023-07-13T15:00:40;4.78;;;2.08;;
76863;SDS011;65834;52.364;9.754;2023-07-13T15:03:14;4.78;;;1.88;;
76863;SDS011;65834;52.364;9.754;2023-07-13T15:05:48;5.20;;;2.10;;
76863;SDS011;65834;52.364;9.754;2023-07-13T15:08:22;7.43;;;2.50;;
76863;SDS011;65834;52.364;9.754;2023-07-13T15:10:52;5.00;;;2.00;;
76863;SDS011;65834;52.364;9.754;2023-07-13T15:13:24;5.10;;;1.98;;
76863;SDS011;65834;52.364;9.754;2023-07-13T15:15:55;6.25;;;2.15;;
76863;SDS011;65834;52.364;9.754;2023-07-13T15:18:24;5.43;;;2.22;;
76863;SDS011;65834;52.364;9.754;2023-07-13T15:20:55;8.98;;;2.63;;
76863;SDS011;65834;52.364;9.754;2023-07-13T15:23:31;5.90;;;2.35;;
76863;SDS011;65834;52.364;9.754;2023-07-13T15:26:01;6.90;;;2.40;;
76863;SDS011;65834;52.364;9.754;2023-07-13T15:28:30;4.40;;;2.05;;
76863;SDS011;65834;52.364;9.754;2023-07-13T15:31:05;6.30;;;2.65;;
76863;SDS011;65834;52.364;9.754;2023-07-13T15:33:47;8.13;;;2.63;;
76863;SDS011;65834;52.364;9.754;2023-07-13T15:36:18;6.60;;;2.00;;
76863;SDS011;65834;52.364;9.754;2023-07-13T15:38:51;7.53;;;2.45;;